Time,TemperatureF,DewpointF,PressureIn,WindDirection,WindDirectionDegrees,WindSpeedMPH,WindSpeedGustMPH,Humidity,HourlyPrecipIn,Conditions,Clouds,dailyrainin,SoftwareType,DateUTC
2013-01-25 00:01:00,52.0,42.0,30.37,WNW,287,0.0,0.0,69,0.00,,,0.00,,2013-01-25 07:01:00,
2013-01-25 00:11:00,52.0,43.0,30.36,SE,146,0.0,0.0,70,0.00,,,0.00,,2013-01-25 07:11:00,
2013-01-25 00:21:00,52.0,43.0,30.36,SE,146,0.0,0.0,70,0.00,,,0.00,,2013-01-25 07:21:00,
2013-01-25 00:31:00,52.0,43.0,30.36,SW,214,0.0,0.0,71,0.00,,,0.00,,2013-01-25 07:31:00,
2013-01-25 00:41:00,52.0,43.0,30.36,SW,214,0.0,0.0,71,0.00,,,0.00,,2013-01-25 07:41:00,
2013-01-25 00:51:00,52.0,43.0,30.36,South,190,0.0,0.0,71,0.00,,,0.00,,2013-01-25 07:51:00,
2013-01-25 01:01:00,52.0,42.0,30.35,SE,131,0.0,0.0,69,0.00,,,0.00,,2013-01-25 08:01:00,
2013-01-25 01:11:00,52.0,43.0,30.35,SSW,205,0.0,0.0,70,0.00,,,0.00,,2013-01-25 08:11:00,
2013-01-25 01:21:00,52.0,43.0,30.35,SSW,205,0.0,0.0,70,0.00,,,0.00,,2013-01-25 08:21:00,
2013-01-25 01:31:00,52.0,43.0,30.35,South,181,0.0,0.0,70,0.00,,,0.00,,2013-01-25 08:31:00,
2013-01-25 01:41:00,52.0,43.0,30.35,South,181,0.0,0.0,70,0.00,,,0.00,,2013-01-25 08:41:00,
2013-01-25 01:52:00,52.0,43.0,30.34,South,174,0.0,0.0,70,0.00,,,0.00,,2013-01-25 08:52:00,
2013-01-25 02:01:00,52.0,43.0,30.34,SE,146,0.0,0.0,70,0.00,,,0.00,,2013-01-25 09:01:00,
2013-01-25 02:11:00,52.0,42.0,30.33,SE,141,0.0,0.0,69,0.00,,,0.00,,2013-01-25 09:11:00,
2013-01-25 02:21:00,52.0,42.0,30.33,SE,141,0.0,0.0,69,0.00,,,0.00,,2013-01-25 09:21:00,
2013-01-25 02:31:00,52.0,42.0,30.33,SE,139,0.0,0.0,69,0.00,,,0.00,,2013-01-25 09:31:00,
2013-01-25 02:41:00,52.0,42.0,30.33,SE,139,0.0,0.0,69,0.00,,,0.00,,2013-01-25 09:41:00,
2013-01-25 02:52:00,52.0,42.0,30.34,SSE,150,0.0,0.0,69,0.00,,,0.00,,2013-01-25 09:52:00,
2013-01-25 03:01:00,52.0,43.0,30.33,SE,143,0.0,0.0,70,0.00,,,0.00,,2013-01-25 10:01:00,
2013-01-25 03:11:00,52.0,42.0,30.32,ESE,110,4.0,6.0,68,0.00,,,0.00,,2013-01-25 10:11:00,
2013-01-25 03:21:00,52.0,42.0,30.32,ESE,110,4.0,6.0,68,0.00,,,0.00,,2013-01-25 10:21:00,
2013-01-25 03:31:00,52.0,42.0,30.32,SE,132,4.0,5.0,68,0.00,,,0.00,,2013-01-25 10:31:00,
2013-01-25 03:41:00,52.0,42.0,30.32,SE,132,4.0,5.0,68,0.00,,,0.00,,2013-01-25 10:41:00,
2013-01-25 03:52:00,51.0,41.0,30.31,SE,125,5.0,6.0,69,0.00,,,0.00,,2013-01-25 10:52:00,
2013-01-25 04:01:00,51.0,42.0,30.32,SE,138,6.0,7.0,70,0.00,,,0.00,,2013-01-25 11:01:00,
2013-01-25 04:11:00,51.0,42.0,30.32,SE,138,6.0,7.0,70,0.00,,,0.00,,2013-01-25 11:11:00,
2013-01-25 04:21:00,51.0,42.0,30.32,SE,144,4.0,6.0,71,0.00,,,0.00,,2013-01-25 11:21:00,
2013-01-25 04:31:00,50.0,41.0,30.32,SE,138,4.0,6.0,71,0.00,,,0.00,,2013-01-25 11:31:00,
2013-01-25 04:41:00,50.0,41.0,30.32,SE,138,4.0,6.0,71,0.00,,,0.00,,2013-01-25 11:41:00,
2013-01-25 04:52:00,50.0,41.0,30.32,SE,139,3.0,5.0,72,0.00,,,0.00,,2013-01-25 11:52:00,
2013-01-25 05:01:00,50.0,41.0,30.31,SE,138,3.0,4.0,72,0.00,,,0.00,,2013-01-25 12:01:00,
2013-01-25 05:11:00,50.0,41.0,30.31,SE,138,3.0,4.0,72,0.00,,,0.00,,2013-01-25 12:11:00,
2013-01-25 05:21:00,50.0,41.0,30.31,SSE,152,2.0,5.0,72,0.00,,,0.00,,2013-01-25 12:21:00,
2013-01-25 05:32:00,50.0,41.0,30.31,SE,137,2.0,4.0,71,0.00,,,0.00,,2013-01-25 12:32:00,
2013-01-25 05:41:00,50.0,41.0,30.31,SE,137,2.0,4.0,71,0.00,,,0.00,,2013-01-25 12:41:00,
2013-01-25 05:53:00,50.0,41.0,30.31,ESE,115,0.0,0.0,71,0.00,,,0.00,,2013-01-25 12:53:00,
2013-01-25 06:01:00,50.0,41.0,30.31,SE,138,0.0,0.0,72,0.00,,,0.00,,2013-01-25 13:01:00,
2013-01-25 06:11:00,50.0,41.0,30.31,SE,138,0.0,0.0,72,0.00,,,0.00,,2013-01-25 13:11:00,
2013-01-25 06:21:00,49.0,41.0,30.31,SE,133,5.0,6.0,73,0.00,,,0.00,,2013-01-25 13:21:00,
2013-01-25 06:31:00,50.0,41.0,30.31,SE,141,3.0,5.0,72,0.00,,,0.00,,2013-01-25 13:31:00,
2013-01-25 06:42:00,50.0,41.0,30.31,SE,141,3.0,5.0,72,0.00,,,0.00,,2013-01-25 13:42:00,
2013-01-25 06:52:00,49.0,41.0,30.31,SE,130,4.0,5.0,73,0.00,,,0.00,,2013-01-25 13:52:00,
2013-01-25 07:01:00,49.0,41.0,30.32,SE,136,4.0,6.0,74,0.00,,,0.00,,2013-01-25 14:01:00,
2013-01-25 07:11:00,49.0,41.0,30.32,SE,136,4.0,6.0,74,0.00,,,0.00,,2013-01-25 14:11:00,
2013-01-25 07:22:00,48.0,40.0,30.32,SE,137,0.0,0.0,75,0.00,,,0.00,,2013-01-25 14:22:00,
2013-01-25 07:32:00,48.0,40.0,30.32,ESE,116,0.0,0.0,75,0.00,,,0.00,,2013-01-25 14:32:00,
2013-01-25 07:41:00,48.0,40.0,30.32,ESE,116,0.0,0.0,75,0.00,,,0.00,,2013-01-25 14:41:00,
2013-01-25 07:53:00,48.0,41.0,30.33,ESE,102,0.0,0.0,76,0.00,,,0.00,,2013-01-25 14:53:00,
2013-01-25 08:01:00,48.0,41.0,30.32,East,86,0.0,0.0,76,0.00,,,0.00,,2013-01-25 15:01:00,
2013-01-25 08:11:00,48.0,41.0,30.32,East,86,0.0,0.0,76,0.00,,,0.00,,2013-01-25 15:11:00,
2013-01-25 08:21:00,48.0,41.0,30.32,East,81,0.0,0.0,76,0.00,,,0.00,,2013-01-25 15:21:00,
2013-01-25 08:31:00,50.0,41.0,30.32,East,100,0.0,0.0,72,0.00,,,0.00,,2013-01-25 15:31:00,
2013-01-25 08:41:00,50.0,41.0,30.32,East,100,0.0,0.0,72,0.00,,,0.00,,2013-01-25 15:41:00,
2013-01-25 08:52:00,52.0,42.0,30.32,East,86,0.0,0.0,68,0.00,,,0.00,,2013-01-25 15:52:00,
2013-01-25 09:02:00,54.0,42.0,30.32,East,87,1.0,4.0,64,0.00,,,0.00,,2013-01-25 16:02:00,
2013-01-25 09:21:00,54.0,42.0,30.32,ENE,58,0.0,4.0,63,0.00,,,0.00,,2013-01-25 16:21:00,
2013-01-25 09:31:00,55.0,42.0,30.32,NNE,23,2.0,5.0,61,0.00,,,0.00,,2013-01-25 16:31:00,
2013-01-25 09:41:00,55.0,42.0,30.32,NNE,23,2.0,5.0,61,0.00,,,0.00,,2013-01-25 16:41:00,
2013-01-25 09:52:00,54.0,41.0,30.33,NNE,29,0.0,4.0,62,0.00,,,0.00,,2013-01-25 16:52:00,
2013-01-25 10:01:00,53.0,41.0,30.33,NNE,13,0.0,0.0,63,0.00,,,0.00,,2013-01-25 17:01:00,
2013-01-25 10:11:00,53.0,41.0,30.33,NNE,13,0.0,0.0,63,0.00,,,0.00,,2013-01-25 17:11:00,
2013-01-25 10:21:00,55.0,42.0,30.34,West,279,0.0,0.0,62,0.00,,,0.00,,2013-01-25 17:21:00,
2013-01-25 10:31:00,56.0,42.0,30.34,NNW,347,0.0,2.0,60,0.00,,,0.00,,2013-01-25 17:31:00,
2013-01-25 10:42:00,56.0,42.0,30.34,NNW,347,0.0,2.0,60,0.00,,,0.00,,2013-01-25 17:42:00,
2013-01-25 10:53:00,57.0,42.0,30.33,NE,43,2.0,5.0,57,0.00,,,0.00,,2013-01-25 17:53:00,
2013-01-25 11:01:00,59.0,43.0,30.32,NE,51,5.0,8.0,55,0.00,,,0.00,,2013-01-25 18:01:00,
2013-01-25 11:11:00,59.0,43.0,30.32,NE,51,5.0,8.0,55,0.00,,,0.00,,2013-01-25 18:11:00,
2013-01-25 11:22:00,62.0,44.0,30.33,NE,44,3.0,7.0,51,0.00,,,0.00,,2013-01-25 18:22:00,
2013-01-25 11:32:00,63.0,42.0,30.32,East,82,4.0,9.0,47,0.00,,,0.00,,2013-01-25 18:32:00,
2013-01-25 11:41:00,63.0,42.0,30.32,East,82,4.0,9.0,47,0.00,,,0.00,,2013-01-25 18:41:00,
2013-01-25 11:52:00,66.0,41.0,30.31,ESE,110,6.0,9.0,40,0.00,,,0.00,,2013-01-25 18:52:00,
2013-01-25 12:01:00,66.0,40.0,30.30,ENE,67,6.0,9.0,39,0.00,,,0.00,,2013-01-25 19:01:00,
2013-01-25 12:11:00,66.0,40.0,30.30,ENE,67,6.0,9.0,39,0.00,,,0.00,,2013-01-25 19:11:00,
2013-01-25 12:21:00,67.0,41.0,30.30,North,4,3.0,10.0,38,0.00,,,0.00,,2013-01-25 19:21:00,
2013-01-25 12:31:00,67.0,41.0,30.29,NE,51,2.0,8.0,38,0.00,,,0.00,,2013-01-25 19:31:00,
2013-01-25 12:41:00,67.0,41.0,30.29,NE,51,2.0,8.0,38,0.00,,,0.00,,2013-01-25 19:41:00,
2013-01-25 12:52:00,67.0,41.0,30.28,NE,53,5.0,7.0,38,0.00,,,0.00,,2013-01-25 19:52:00,
2013-01-25 13:01:00,67.0,41.0,30.27,ENE,64,0.0,5.0,38,0.00,,,0.00,,2013-01-25 20:01:00,
2013-01-25 13:11:00,67.0,41.0,30.27,ENE,64,0.0,5.0,38,0.00,,,0.00,,2013-01-25 20:11:00,
2013-01-25 13:21:00,67.0,41.0,30.26,East,82,3.0,6.0,38,0.00,,,0.00,,2013-01-25 20:21:00,
2013-01-25 13:31:00,67.0,41.0,30.25,ENE,58,1.0,6.0,39,0.00,,,0.00,,2013-01-25 20:31:00,
2013-01-25 13:41:00,67.0,41.0,30.25,ENE,58,1.0,6.0,39,0.00,,,0.00,,2013-01-25 20:41:00,
2013-01-25 13:52:00,68.0,41.0,30.24,East,101,1.0,7.0,38,0.00,,,0.00,,2013-01-25 20:52:00,
2013-01-25 14:01:00,68.0,42.0,30.24,ESE,116,4.0,6.0,39,0.00,,,0.00,,2013-01-25 21:01:00,
2013-01-25 14:11:00,68.0,42.0,30.24,ESE,116,4.0,6.0,39,0.00,,,0.00,,2013-01-25 21:11:00,
2013-01-25 14:22:00,67.0,41.0,30.22,ESE,112,0.0,8.0,39,0.00,,,0.00,,2013-01-25 21:22:00,
2013-01-25 14:32:00,68.0,41.0,30.22,East,100,0.0,6.0,38,0.00,,,0.00,,2013-01-25 21:32:00,
2013-01-25 14:42:00,68.0,41.0,30.22,East,100,0.0,6.0,38,0.00,,,0.00,,2013-01-25 21:42:00,
2013-01-25 14:52:00,68.0,41.0,30.22,ENE,64,3.0,5.0,38,0.00,,,0.00,,2013-01-25 21:52:00,
2013-01-25 15:01:00,68.0,41.0,30.21,East,91,0.0,4.0,38,0.00,,,0.00,,2013-01-25 22:01:00,
2013-01-25 15:11:00,68.0,41.0,30.21,East,91,0.0,4.0,38,0.00,,,0.00,,2013-01-25 22:11:00,
2013-01-25 15:21:00,68.0,41.0,30.21,ENE,65,1.0,5.0,38,0.00,,,0.00,,2013-01-25 22:21:00,
2013-01-25 15:31:00,68.0,41.0,30.21,NE,56,0.0,5.0,38,0.00,,,0.00,,2013-01-25 22:31:00,
2013-01-25 15:41:00,68.0,41.0,30.21,NE,56,0.0,5.0,38,0.00,,,0.00,,2013-01-25 22:41:00,
2013-01-25 15:52:00,68.0,41.0,30.20,ENE,78,4.0,6.0,38,0.00,,,0.00,,2013-01-25 22:52:00,
2013-01-25 16:01:00,68.0,41.0,30.20,ENE,67,1.0,5.0,38,0.00,,,0.00,,2013-01-25 23:01:00,
2013-01-25 16:11:00,68.0,41.0,30.20,ENE,67,1.0,5.0,38,0.00,,,0.00,,2013-01-25 23:11:00,
2013-01-25 16:21:00,68.0,41.0,30.20,North,357,0.0,0.0,38,0.00,,,0.00,,2013-01-25 23:21:00,
2013-01-25 16:31:00,68.0,41.0,30.20,East,89,0.0,1.0,38,0.00,,,0.00,,2013-01-25 23:31:00,
2013-01-25 16:41:00,68.0,41.0,30.20,East,89,0.0,1.0,38,0.00,,,0.00,,2013-01-25 23:41:00,
2013-01-25 16:52:00,68.0,41.0,30.19,NE,48,0.0,0.0,38,0.00,,,0.00,,2013-01-25 23:52:00,
2013-01-25 17:01:00,67.0,41.0,30.19,NE,39,0.0,4.0,38,0.00,,,0.00,,2013-01-26 00:01:00,
2013-01-25 17:11:00,67.0,41.0,30.19,NE,39,0.0,4.0,38,0.00,,,0.00,,2013-01-26 00:11:00,
2013-01-25 17:22:00,67.0,41.0,30.18,NE,49,0.0,0.0,39,0.00,,,0.00,,2013-01-26 00:22:00,
2013-01-25 17:31:00,67.0,41.0,30.18,NE,51,0.0,0.0,39,0.00,,,0.00,,2013-01-26 00:31:00,
2013-01-25 17:41:00,67.0,41.0,30.18,NE,51,0.0,0.0,39,0.00,,,0.00,,2013-01-26 00:41:00,
2013-01-25 17:53:00,66.0,41.0,30.19,NE,51,0.0,0.0,40,0.00,,,0.00,,2013-01-26 00:53:00,
2013-01-25 18:01:00,65.0,40.0,30.19,NE,51,0.0,0.0,40,0.00,,,0.00,,2013-01-26 01:01:00,
2013-01-25 18:11:00,65.0,40.0,30.19,NE,51,0.0,0.0,40,0.00,,,0.00,,2013-01-26 01:11:00,
2013-01-25 18:22:00,65.0,41.0,30.19,NE,51,0.0,0.0,41,0.00,,,0.00,,2013-01-26 01:22:00,
2013-01-25 18:31:00,64.0,40.0,30.19,NE,51,0.0,0.0,42,0.00,,,0.00,,2013-01-26 01:31:00,
2013-01-25 18:41:00,64.0,40.0,30.19,NE,51,0.0,0.0,42,0.00,,,0.00,,2013-01-26 01:41:00,
2013-01-25 18:52:00,64.0,40.0,30.18,NE,51,0.0,0.0,42,0.00,,,0.00,,2013-01-26 01:52:00,
2013-01-25 19:01:00,63.0,40.0,30.18,NE,51,0.0,0.0,43,0.00,,,0.00,,2013-01-26 02:01:00,
2013-01-25 19:11:00,63.0,40.0,30.18,NE,51,0.0,0.0,43,0.00,,,0.00,,2013-01-26 02:11:00,
2013-01-25 19:21:00,62.0,40.0,30.19,ESE,113,0.0,0.0,44,0.00,,,0.00,,2013-01-26 02:21:00,
2013-01-25 19:32:00,62.0,40.0,30.19,SSE,150,0.0,0.0,45,0.00,,,0.00,,2013-01-26 02:32:00,
2013-01-25 19:41:00,62.0,40.0,30.19,SSE,150,0.0,0.0,45,0.00,,,0.00,,2013-01-26 02:41:00,
2013-01-25 19:52:00,60.0,40.0,30.19,SE,146,0.0,0.0,47,0.00,,,0.00,,2013-01-26 02:52:00,
2013-01-25 20:01:00,61.0,41.0,30.19,SE,145,0.0,0.0,47,0.00,,,0.00,,2013-01-26 03:01:00,
2013-01-25 20:11:00,61.0,41.0,30.19,SE,145,0.0,0.0,47,0.00,,,0.00,,2013-01-26 03:11:00,
2013-01-25 20:21:00,60.0,40.0,30.19,SSE,150,0.0,0.0,48,0.00,,,0.00,,2013-01-26 03:21:00,
2013-01-25 20:31:00,60.0,40.0,30.19,SE,139,0.0,0.0,48,0.00,,,0.00,,2013-01-26 03:31:00,
2013-01-25 20:42:00,60.0,40.0,30.19,SE,139,0.0,0.0,48,0.00,,,0.00,,2013-01-26 03:42:00,
2013-01-25 20:52:00,59.0,40.0,30.19,SE,132,0.0,0.0,49,0.00,,,0.00,,2013-01-26 03:52:00,
2013-01-25 21:01:00,60.0,41.0,30.18,SSE,150,3.0,4.0,49,0.00,,,0.00,,2013-01-26 04:01:00,
2013-01-25 21:12:00,60.0,41.0,30.18,SSE,150,3.0,4.0,49,0.00,,,0.00,,2013-01-26 04:12:00,
2013-01-25 21:21:00,60.0,41.0,30.18,ESE,116,4.0,5.0,49,0.00,,,0.00,,2013-01-26 04:21:00,
2013-01-25 21:32:00,60.0,41.0,30.18,SE,136,3.0,4.0,49,0.00,,,0.00,,2013-01-26 04:32:00,
2013-01-25 21:42:00,60.0,41.0,30.18,SE,136,3.0,4.0,49,0.00,,,0.00,,2013-01-26 04:42:00,
2013-01-25 21:52:00,60.0,40.0,30.19,SSE,150,3.0,5.0,48,0.00,,,0.00,,2013-01-26 04:52:00,
2013-01-25 22:01:00,60.0,40.0,30.19,SE,124,4.0,5.0,48,0.00,,,0.00,,2013-01-26 05:01:00,
2013-01-25 22:12:00,60.0,40.0,30.19,SE,124,4.0,5.0,48,0.00,,,0.00,,2013-01-26 05:12:00,
2013-01-25 22:22:00,60.0,41.0,30.19,SSE,166,0.0,4.0,50,0.00,,,0.00,,2013-01-26 05:22:00,
2013-01-25 22:32:00,60.0,41.0,30.19,SE,138,0.0,0.0,49,0.00,,,0.00,,2013-01-26 05:32:00,
2013-01-25 22:41:00,60.0,41.0,30.19,SE,138,0.0,0.0,49,0.00,,,0.00,,2013-01-26 05:41:00,
2013-01-25 22:52:00,60.0,41.0,30.19,ESE,121,0.0,3.0,49,0.00,,,0.00,,2013-01-26 05:52:00,
2013-01-25 23:02:00,60.0,41.0,30.19,East,99,8.0,13.0,49,0.00,,,0.00,,2013-01-26 06:02:00,
2013-01-25 23:11:00,60.0,41.0,30.19,East,99,8.0,13.0,49,0.00,,,0.00,,2013-01-26 06:11:00,
2013-01-25 23:21:00,60.0,46.0,30.19,ESE,110,8.0,13.0,60,0.00,,,0.00,,2013-01-26 06:21:00,
2013-01-25 23:31:00,60.0,47.0,30.19,ESE,118,8.0,14.0,62,0.00,,,0.00,,2013-01-26 06:31:00,
2013-01-25 23:41:00,60.0,47.0,30.19,ESE,118,8.0,14.0,62,0.00,,,0.00,,2013-01-26 06:41:00,
2013-01-25 23:52:00,59.0,48.0,30.19,ESE,123,8.0,14.0,66,0.00,,,0.00,,2013-01-26 06:52:00,